Airfield :
LOGIN :

Register | Disclaimer

   EN    FR    IT 

 










Legend :    VFR   Marginal VFR   IFR   Intensive IFR   Very Intensive IFR
Visi :
Ceiling :
>= 8 km
>= 3000ft
5 to 8 km
1000 to 3000 ft
1500m to 5 km
500 to 1000 ft
800 to 1500m
200 to 500 ft
< 800m
< 200 ft
Symbols :   Thunderstorms  Fog  Heavy snow  Heavy precipitations  Wind > 20 kt
SIGMETs :     Misc.  Thunderstorms  Icing  Turbulence  Mountain Waves  Volcanic Ashes






- Airport Elevation : 466 ft


LHPA - Pápa

CURRENT METAR :
  • 082145Z 11006KT CAVOK 02/M02 Q1006 NOSIG RMK BLU

EXPIRED METARs :
  • 082115Z 17004KT CAVOK 02/M02 Q1006 NOSIG RMK BLU
  • 082045Z 16002KT CAVOK 02/M02 Q1006 NOSIG RMK BLU
  • 082015Z 12008KT CAVOK 02/M02 Q1006 NOSIG RMK BLU
  • 081945Z 14010KT CAVOK 02/M02 Q1005 NOSIG RMK BLU
  • 081915Z 14010KT CAVOK 02/M02 Q1006 NOSIG RMK BLU

TAF TAF LHPA
Valid from the 08 at 18:00 until the 09 at 18:00 UTC


081715Z 0818/0918 15009KT CAVOK
BECMG 0822/0901 06009KT 9999 SCT030 OVC060
PROB40
TEMPO 0901/0905 5000 SNRA FZRA BR SCT005 BKN010 OVC030
TEMPO 0905/0915 3000 SN BR BKN005 BKN010 OVC030
BECMG 0910/0912 34011KT
BECMG 0915/0917 30006KT



MET'MAP, your aeronautical weather chart ! - Copyright ORBIFLY December 2007 - Disclaimer

ORBIFLY MET'MAP TEAM :

Programming & Development : Alexandra Zaïnal
Concept & original design : Baudouin d'Aumeries
Assistance for programming : Marc-Olivier Méhu
Technical & hardware support : Manuel Goepfert

Contact : metmap@orbifly.com




SOURCES & CREDITS :

   NOAA